createdAt,value
2019-02-12T00:01:37.463Z,22.4
2019-02-12T00:04:43.422Z,22.4
2019-02-12T00:07:49.336Z,22.4
2019-02-12T00:10:55.378Z,22.4
2019-02-12T00:14:01.313Z,22.3
2019-02-12T00:17:07.332Z,22.3
2019-02-12T00:20:13.303Z,22.3
2019-02-12T00:23:19.314Z,22.3
2019-02-12T00:26:25.279Z,22.3
2019-02-12T00:29:31.303Z,22.3
2019-02-12T00:32:37.181Z,22.2
2019-02-12T00:35:46.301Z,22.2
2019-02-12T00:38:52.263Z,22.2
2019-02-12T00:41:58.137Z,22.2
2019-02-12T00:45:04.167Z,22.2
2019-02-12T00:48:10.069Z,22.2
2019-02-12T00:51:17.674Z,22.2
2019-02-12T00:54:24.263Z,22.2
2019-02-12T00:57:30.393Z,22.1
2019-02-12T01:00:36.422Z,22.1
2019-02-12T01:03:42.443Z,22.1
2019-02-12T01:06:48.475Z,22.1
2019-02-12T01:09:54.426Z,22.1
2019-02-12T01:13:00.401Z,22
2019-02-12T01:16:06.670Z,22.1
2019-02-12T01:19:15.681Z,22.1
2019-02-12T01:22:21.594Z,22.1
2019-02-12T01:25:27.533Z,22.1
2019-02-12T01:28:34.457Z,22
2019-02-12T01:31:40.336Z,22.1
2019-02-12T01:34:46.352Z,22.1
2019-02-12T01:37:52.254Z,22.1
2019-02-12T01:40:58.176Z,22
2019-02-12T01:44:04.090Z,22.1
2019-02-12T01:47:10.055Z,22.1
2019-02-12T01:50:16.014Z,22.1
2019-02-12T01:53:22.016Z,22.1
2019-02-12T01:56:27.995Z,22.1
2019-02-12T01:59:33.953Z,22.1
2019-02-12T02:02:39.930Z,22.1
2019-02-12T02:05:45.839Z,22.1
2019-02-12T02:08:51.787Z,22.1
2019-02-12T02:11:57.678Z,22.1
2019-02-12T02:15:03.627Z,22.2
2019-02-12T02:18:09.520Z,22.2
2019-02-12T02:21:15.527Z,22.2
2019-02-12T02:24:21.528Z,22.3
2019-02-12T02:27:27.409Z,22.3
2019-02-12T02:30:33.408Z,22.3
2019-02-12T02:33:39.447Z,22.4
2019-02-12T02:36:45.435Z,22.4
2019-02-12T02:39:51.387Z,22.4
2019-02-12T02:42:57.330Z,22.4
2019-02-12T02:46:03.254Z,22.4
2019-02-12T02:49:09.357Z,22.5
2019-02-12T02:52:15.339Z,22.5
2019-02-12T02:55:21.261Z,22.5
2019-02-12T02:58:27.301Z,22.5
2019-02-12T03:01:33.225Z,22.5
2019-02-12T03:04:39.258Z,22.6
2019-02-12T03:07:45.327Z,22.6
2019-02-12T03:10:52.282Z,22.6
2019-02-12T03:13:58.433Z,22.6
2019-02-12T03:17:04.350Z,22.6
2019-02-12T03:20:10.300Z,22.6
2019-02-12T03:23:16.418Z,22.6
2019-02-12T03:26:22.323Z,22.7
2019-02-12T03:29:28.360Z,22.7
2019-02-12T03:32:34.442Z,22.7
2019-02-12T03:35:41.428Z,22.7
2019-02-12T03:38:47.498Z,22.7
2019-02-12T03:41:53.396Z,22.7
2019-02-12T03:44:59.506Z,22.8
2019-02-12T03:48:05.825Z,22.8
2019-02-12T03:51:11.827Z,22.9
2019-02-12T03:54:17.827Z,22.9
2019-02-12T03:57:23.789Z,23
2019-02-12T04:00:29.698Z,23
2019-02-12T04:03:36.625Z,23
2019-02-12T04:06:42.757Z,23.1
2019-02-12T04:09:48.661Z,23.1
2019-02-12T04:12:54.600Z,23.2
2019-02-12T04:16:00.590Z,23.2
2019-02-12T04:19:09.653Z,23.3
2019-02-12T04:22:22.115Z,23.3
2019-02-12T04:25:28.801Z,23.4
2019-02-12T04:28:34.671Z,23.4
2019-02-12T04:31:40.721Z,23.4
2019-02-12T04:34:46.675Z,23.4
2019-02-12T04:37:52.653Z,23.5
2019-02-12T04:40:58.760Z,23.5
2019-02-12T04:44:04.846Z,23.5
2019-02-12T04:47:10.734Z,23.5
2019-02-12T04:50:16.752Z,23.5
2019-02-12T04:53:22.794Z,23.6
2019-02-12T04:56:28.764Z,23.6
2019-02-12T04:59:34.788Z,23.6
2019-02-12T05:02:40.867Z,23.7
2019-02-12T05:05:46.793Z,23.7
2019-02-12T05:08:53.053Z,23.7
2019-02-12T05:12:01.037Z,23.7
2019-02-12T05:15:07.087Z,23.7
2019-02-12T05:18:13.087Z,23.8
2019-02-12T05:21:18.991Z,23.8
2019-02-12T05:24:25.011Z,23.8
2019-02-12T05:27:31.086Z,23.8
2019-02-12T05:30:37.023Z,23.9
2019-02-12T05:33:43.046Z,23.9
2019-02-12T05:36:49.066Z,23.9
2019-02-12T05:39:55.051Z,23.9
2019-02-12T05:43:01.035Z,23.9
2019-02-12T05:46:07.100Z,24
2019-02-12T05:49:13.056Z,24
2019-02-12T05:52:19.134Z,24
2019-02-12T05:55:25.119Z,24
2019-02-12T05:58:31.180Z,24
2019-02-12T06:01:37.232Z,-145.7
2019-02-12T06:04:43.162Z,-145.7
2019-02-12T06:07:49.153Z,-145.7
2019-02-12T06:10:55.092Z,-145.7
2019-02-12T06:14:01.082Z,-145.7
2019-02-12T06:17:07.206Z,-145.7
2019-02-12T06:20:13.297Z,-145.7
2019-02-12T06:23:19.242Z,-145.7
2019-02-12T06:26:25.247Z,-145.7
2019-02-12T06:29:31.101Z,-145.7
2019-02-12T06:32:37.119Z,-145.7
2019-02-12T06:35:43.170Z,-145.7
2019-02-12T06:38:49.151Z,-145.7
2019-02-12T06:41:55.079Z,-145.7
2019-02-12T06:45:01.032Z,-145.7
2019-02-12T06:48:07.007Z,-145.7
2019-02-12T06:51:12.999Z,-145.7
2019-02-12T06:54:21.413Z,-145.7
2019-02-12T06:57:27.339Z,-145.7
2019-02-12T07:00:33.341Z,-145.7
2019-02-12T07:03:39.260Z,-145.7
2019-02-12T07:06:45.309Z,-145.7
2019-02-12T07:09:51.237Z,-145.7
2019-02-12T07:12:57.174Z,-145.7
2019-02-12T07:16:05.258Z,-145.7
2019-02-12T07:19:11.209Z,-145.7
2019-02-12T07:22:18.224Z,-145.7
2019-02-12T07:25:24.292Z,-145.7
2019-02-12T07:28:30.284Z,-145.7
2019-02-12T07:31:36.264Z,-145.7
2019-02-12T07:34:42.291Z,-145.7
2019-02-12T07:37:48.400Z,-145.7
2019-02-12T07:40:54.312Z,-145.7
2019-02-12T07:44:00.254Z,-145.7
2019-02-12T07:47:06.361Z,-145.7
2019-02-12T07:50:12.802Z,-145.7
2019-02-12T07:53:18.906Z,-145.7
2019-02-12T07:56:34.726Z,-145.7
2019-02-12T07:59:40.621Z,-145.7
2019-02-12T08:02:48.134Z,-145.7
2019-02-12T08:05:56.301Z,-145.7
2019-02-12T08:09:04.884Z,-145.7
2019-02-12T08:12:10.963Z,-145.7
2019-02-12T08:15:17.059Z,-145.7
2019-02-12T08:18:23.014Z,-145.7
2019-02-12T08:21:29.049Z,-145.7
2019-02-12T08:24:34.977Z,-145.7
2019-02-12T08:27:41.201Z,-145.7
2019-02-12T08:30:48.590Z,-145.7
2019-02-12T08:33:56.734Z,-145.7
2019-02-12T08:37:02.789Z,-145.7
2019-02-12T08:40:08.901Z,-145.7
2019-02-12T08:43:14.991Z,-145.7
2019-02-12T08:46:20.963Z,-145.7
2019-02-12T08:49:27.126Z,-145.7
2019-02-12T08:52:33.173Z,-145.7
2019-02-12T08:55:39.055Z,-145.7
2019-02-12T08:58:45.075Z,-145.7
2019-02-12T09:01:51.091Z,-145.7
2019-02-12T09:04:57.308Z,-145.7
2019-02-12T09:08:03.326Z,-145.7
2019-02-12T09:11:09.505Z,-145.7
2019-02-12T09:14:15.443Z,-145.7
2019-02-12T09:17:21.543Z,-145.7
2019-02-12T09:20:27.665Z,-145.7
2019-02-12T09:23:33.702Z,-145.7
2019-02-12T09:26:39.642Z,-145.7
2019-02-12T09:29:45.737Z,-145.7
2019-02-12T09:32:51.673Z,-145.7
2019-02-12T09:35:58.057Z,-145.7
2019-02-12T09:39:04.465Z,-145.7
2019-02-12T09:42:10.573Z,-145.7
2019-02-12T09:45:16.475Z,-145.7
2019-02-12T09:48:22.611Z,-145.7
2019-02-12T09:51:28.579Z,-145.7
2019-02-12T09:54:34.541Z,-145.7
2019-02-12T09:57:40.770Z,-145.7
2019-02-12T10:00:46.772Z,-145.7
2019-02-12T10:03:52.712Z,-145.7
2019-02-12T10:06:58.682Z,-145.7
2019-02-12T10:10:05.660Z,-145.7
2019-02-12T10:13:11.684Z,-145.7
2019-02-12T10:16:17.740Z,-145.7
2019-02-12T10:19:23.761Z,-145.7
2019-02-12T10:22:29.788Z,-145.7
2019-02-12T10:25:35.929Z,-145.7
2019-02-12T10:28:48.531Z,-145.7
2019-02-12T10:31:55.204Z,-145.7
2019-02-12T10:35:11.082Z,-145.7
2019-02-12T10:38:17.372Z,-145.7
2019-02-12T10:41:23.437Z,-145.7
2019-02-12T10:44:29.698Z,-145.7
2019-02-12T10:47:35.813Z,-145.7
2019-02-12T10:50:42.048Z,-145.7
2019-02-12T10:53:48.141Z,-145.7
2019-02-12T10:56:54.180Z,-145.7
2019-02-12T11:00:00.563Z,-145.7
2019-02-12T11:03:06.457Z,-145.7
2019-02-12T11:06:12.549Z,-145.7
2019-02-12T11:09:18.527Z,-145.7
2019-02-12T11:11:05.232Z,27.3
2019-02-12T11:14:11.168Z,26.7
2019-02-12T11:17:17.206Z,26.6
2019-02-12T11:20:23.209Z,26.5
2019-02-12T11:23:29.162Z,26.5
2019-02-12T11:26:35.124Z,26.6
2019-02-12T11:29:41.315Z,26.6
2019-02-12T11:32:47.456Z,26.6
2019-02-12T11:35:53.375Z,26.6
2019-02-12T11:38:59.383Z,26.6
2019-02-12T11:42:05.332Z,26.7
2019-02-12T11:45:11.339Z,26.7
2019-02-12T11:48:17.949Z,26.7
2019-02-12T11:51:24.309Z,26.7
2019-02-12T11:54:30.955Z,26.7
2019-02-12T11:57:45.372Z,26.7
2019-02-12T12:00:51.490Z,26.7
2019-02-12T12:03:57.519Z,26.7
2019-02-12T12:07:03.578Z,26.7
2019-02-12T12:10:09.540Z,26.7
2019-02-12T12:13:15.731Z,26.7
2019-02-12T12:16:21.715Z,26.7
2019-02-12T12:19:30.522Z,26.7
2019-02-12T12:22:36.494Z,26.7
2019-02-12T12:25:42.602Z,26.6
2019-02-12T12:28:48.651Z,26.6
2019-02-12T12:31:54.735Z,26.6
2019-02-12T12:35:00.672Z,26.6
2019-02-12T12:38:07.752Z,26.6
2019-02-12T12:41:13.844Z,26.6
2019-02-12T12:44:20.721Z,26.6
2019-02-12T12:47:26.766Z,26.5
2019-02-12T12:50:32.987Z,26.6
2019-02-12T12:53:39.028Z,26.6
2019-02-12T12:56:45.132Z,26.5
2019-02-12T12:59:51.253Z,26.5
2019-02-12T13:02:57.358Z,26.5
2019-02-12T13:06:03.440Z,26.5
2019-02-12T13:09:09.586Z,26.6
2019-02-12T13:12:15.635Z,26.5
2019-02-12T13:15:21.881Z,26.5
2019-02-12T13:18:27.942Z,26.5
2019-02-12T13:21:33.844Z,26.6
2019-02-12T13:24:39.928Z,26.6
2019-02-12T13:27:47.412Z,26.5
2019-02-12T13:30:54.744Z,26.6
2019-02-12T13:34:00.798Z,26.6
2019-02-12T13:37:06.858Z,26.6
2019-02-12T13:40:14.336Z,26.6
2019-02-12T13:43:20.387Z,26.6
2019-02-12T13:46:26.465Z,26.5
2019-02-12T13:49:32.486Z,26.6
2019-02-12T13:52:38.492Z,26.6
2019-02-12T13:55:44.556Z,26.6
2019-02-12T13:58:51.658Z,26.7
2019-02-12T14:01:57.775Z,26.7
2019-02-12T14:05:05.253Z,26.7
2019-02-12T14:08:11.383Z,26.6
2019-02-12T14:11:17.433Z,26.6
2019-02-12T14:14:23.502Z,26.6
2019-02-12T14:17:30.690Z,26.5
2019-02-12T14:20:36.819Z,26.6
2019-02-12T14:23:42.954Z,26.6
2019-02-12T14:26:49.129Z,26.5
2019-02-12T14:29:55.031Z,26.5
2019-02-12T14:33:01.052Z,26.5
2019-02-12T14:36:07.398Z,26.5
2019-02-12T14:39:13.638Z,26.4
2019-02-12T14:42:19.894Z,26.4
2019-02-12T14:45:26.007Z,26.3
2019-02-12T14:48:32.081Z,26.3
2019-02-12T14:51:38.206Z,26.3
2019-02-12T14:54:44.264Z,26.3
2019-02-12T14:57:50.313Z,26.2
2019-02-12T15:00:56.388Z,26.2
2019-02-12T15:04:02.515Z,26.2
2019-02-12T15:07:08.695Z,26.1
2019-02-12T15:10:14.768Z,26.1
2019-02-12T15:13:21.043Z,26.1
2019-02-12T15:16:27.090Z,26.1
2019-02-12T15:19:33.358Z,26
2019-02-12T15:22:39.464Z,26
2019-02-12T15:25:45.633Z,26
2019-02-12T15:28:52.670Z,26
2019-02-12T15:31:58.673Z,26
2019-02-12T15:35:04.689Z,26
2019-02-12T15:38:10.652Z,26
2019-02-12T15:41:16.677Z,25.9
2019-02-12T15:44:22.773Z,25.9
2019-02-12T15:47:28.872Z,25.9
2019-02-12T15:50:34.911Z,25.8
2019-02-12T15:53:42.571Z,25.8
2019-02-12T15:56:48.573Z,25.8
2019-02-12T15:59:56.090Z,25.8
2019-02-12T16:03:02.204Z,25.8
2019-02-12T16:06:08.195Z,25.7
2019-02-12T16:09:16.010Z,25.7
2019-02-12T16:12:24.376Z,25.7
2019-02-12T16:15:36.218Z,25.7
2019-02-12T16:18:47.878Z,25.6
2019-02-12T16:21:54.014Z,25.6
2019-02-12T16:25:00.360Z,25.6
2019-02-12T16:28:06.495Z,25.6
2019-02-12T16:31:12.705Z,25.6
2019-02-12T16:34:20.405Z,25.5
2019-02-12T16:37:26.485Z,25.5
2019-02-12T16:40:32.539Z,25.5
2019-02-12T16:43:39.680Z,25.5
2019-02-12T16:46:45.747Z,25.5
2019-02-12T16:49:52.963Z,25.5
2019-02-12T16:53:00.970Z,25.4
2019-02-12T16:56:08.428Z,25.4
2019-02-12T16:59:14.796Z,25.4
2019-02-12T17:02:20.854Z,25.3
2019-02-12T17:05:29.412Z,25.3
2019-02-12T17:08:35.481Z,25.3
2019-02-12T17:11:41.661Z,25.3
2019-02-12T17:14:47.837Z,25.3
2019-02-12T17:17:54.954Z,25.3
2019-02-12T17:21:00.976Z,25.3
2019-02-12T17:24:08.366Z,25.2
2019-02-12T17:27:14.530Z,25.2
2019-02-12T17:30:20.506Z,25.2
2019-02-12T17:33:26.633Z,25.2
2019-02-12T17:36:32.777Z,25.2
2019-02-12T17:39:38.770Z,25.1
2019-02-12T17:42:44.913Z,25.1
2019-02-12T17:45:50.965Z,25
2019-02-12T17:48:57.124Z,25
2019-02-12T17:52:03.191Z,25
2019-02-12T17:55:09.239Z,25
2019-02-12T17:58:15.261Z,25
2019-02-12T18:01:21.214Z,25
2019-02-12T18:04:27.284Z,25
2019-02-12T18:07:33.327Z,25
2019-02-12T18:10:39.315Z,24.9
2019-02-12T18:13:45.364Z,24.9
2019-02-12T18:16:51.369Z,24.9
2019-02-12T18:19:57.424Z,24.8
2019-02-12T18:23:03.597Z,24.8
2019-02-12T18:26:09.693Z,24.8
2019-02-12T18:29:15.684Z,24.8
2019-02-12T18:32:21.881Z,24.7
2019-02-12T18:35:27.897Z,24.7
2019-02-12T18:38:33.905Z,24.7
2019-02-12T18:41:39.922Z,24.7
2019-02-12T18:44:45.967Z,24.7
2019-02-12T18:47:51.843Z,24.6
2019-02-12T18:50:57.954Z,24.6
2019-02-12T18:54:05.768Z,24.6
2019-02-12T18:57:11.838Z,24.6
2019-02-12T19:00:17.801Z,24.6
2019-02-12T19:03:23.846Z,24.5
2019-02-12T19:06:29.983Z,24.5
2019-02-12T19:09:36.164Z,24.5
2019-02-12T19:12:42.249Z,24.5
2019-02-12T19:15:51.029Z,24.5
2019-02-12T19:18:57.156Z,24.5
2019-02-12T19:22:03.092Z,24.5
2019-02-12T19:25:09.160Z,24.4
2019-02-12T19:28:15.246Z,24.4
2019-02-12T19:31:21.157Z,24.4
2019-02-12T19:34:27.277Z,24.4
2019-02-12T19:37:33.391Z,24.4
2019-02-12T19:40:39.381Z,24.4
2019-02-12T19:43:45.375Z,24.3
2019-02-12T19:46:51.374Z,24.3
2019-02-12T19:49:57.393Z,24.3
2019-02-12T19:53:03.503Z,24.3
2019-02-12T19:56:09.522Z,24.3
2019-02-12T19:59:15.670Z,24.3
2019-02-12T20:02:21.857Z,24.2
2019-02-12T20:08:58.655Z,24.2
2019-02-12T20:12:04.742Z,24.2
2019-02-12T20:15:10.922Z,24.2
2019-02-12T20:18:17.002Z,24.2
2019-02-12T20:21:23.093Z,24.1
2019-02-12T20:24:29.099Z,24.1
2019-02-12T20:27:36.062Z,24.1
2019-02-12T20:30:42.468Z,24.1
2019-02-12T20:33:48.469Z,24.1
2019-02-12T20:37:02.693Z,24
2019-02-12T20:40:08.794Z,24
2019-02-12T20:43:15.116Z,24
2019-02-12T20:46:21.178Z,24
2019-02-12T20:49:27.200Z,24
2019-02-12T20:52:33.144Z,24
2019-02-12T20:55:39.287Z,24
2019-02-12T20:58:45.166Z,23.9
2019-02-12T21:01:51.179Z,23.9
2019-02-12T21:04:57.184Z,23.9
2019-02-12T21:08:03.336Z,23.9
2019-02-12T21:11:09.362Z,23.9
2019-02-12T21:14:15.335Z,23.9
2019-02-12T21:17:21.292Z,23.9
2019-02-12T21:20:27.419Z,23.9
2019-02-12T21:23:33.517Z,23.9
2019-02-12T21:26:39.572Z,23.8
2019-02-12T21:29:45.867Z,23.8
2019-02-12T21:32:53.409Z,23.8
2019-02-12T21:35:59.451Z,23.8
2019-02-12T21:39:05.497Z,23.8
2019-02-12T21:42:11.525Z,23.8
2019-02-12T21:45:17.421Z,23.8
2019-02-12T21:48:23.500Z,23.7
2019-02-12T21:51:29.551Z,23.7
2019-02-12T21:54:35.520Z,23.7
2019-02-12T21:57:41.434Z,23.7
2019-02-12T22:00:47.410Z,23.7
2019-02-12T22:03:53.411Z,23.7
2019-02-12T22:06:59.366Z,23.7
2019-02-12T22:10:05.310Z,23.7
2019-02-12T22:13:11.424Z,23.7
2019-02-12T22:16:17.437Z,23.7
2019-02-12T22:19:23.342Z,23.6
2019-02-12T22:22:29.506Z,23.6
2019-02-12T22:25:35.510Z,23.6
2019-02-12T22:28:41.487Z,23.6
2019-02-12T22:31:47.481Z,23.6
2019-02-12T22:34:56.213Z,23.6
2019-02-12T22:38:02.173Z,23.6
2019-02-12T22:41:08.085Z,23.6
2019-02-12T22:44:14.091Z,23.6
2019-02-12T22:47:20.155Z,23.5
2019-02-12T22:50:26.152Z,23.5
2019-02-12T22:53:32.030Z,23.5
2019-02-12T22:56:37.944Z,23.5
2019-02-12T22:59:44.017Z,23.5
2019-02-12T23:02:50.028Z,23.5
2019-02-12T23:05:56.059Z,23.5
2019-02-12T23:09:02.123Z,23.5
2019-02-12T23:12:08.157Z,23.5
2019-02-12T23:15:14.117Z,23.5
2019-02-12T23:18:20.125Z,23.5
2019-02-12T23:21:26.081Z,23.5
2019-02-12T23:24:33.163Z,23.5
2019-02-12T23:27:39.227Z,23.4
2019-02-12T23:30:45.325Z,23.4
2019-02-12T23:33:51.440Z,23.4
2019-02-12T23:36:57.457Z,23.4
2019-02-12T23:40:03.644Z,23.4
2019-02-12T23:43:09.607Z,23.4
2019-02-12T23:46:15.716Z,23.4
2019-02-12T23:49:21.883Z,23.4
2019-02-12T23:52:27.885Z,23.4
2019-02-12T23:55:33.991Z,23.4
2019-02-12T23:58:39.961Z,23.3
